sensor_id;sensor_type;location;lat;lon;timestamp;temperature;humidity
30399;DHT22;17195;50.838;7.214;2022-09-03T00:00:55;16.20;80.20
30399;DHT22;17195;50.838;7.214;2022-09-03T00:03:39;16.20;80.40
30399;DHT22;17195;50.838;7.214;2022-09-03T00:06:12;16.20;80.60
30399;DHT22;17195;50.838;7.214;2022-09-03T00:14:17;16.20;80.60
30399;DHT22;17195;50.838;7.214;2022-09-03T00:16:56;16.30;80.70
30399;DHT22;17195;50.838;7.214;2022-09-03T00:19:31;16.30;80.70
30399;DHT22;17195;50.838;7.214;2022-09-03T00:22:02;16.30;80.70
30399;DHT22;17195;50.838;7.214;2022-09-03T00:24:34;16.30;80.50
30399;DHT22;17195;50.838;7.214;2022-09-03T00:27:04;16.30;80.70
30399;DHT22;17195;50.838;7.214;2022-09-03T00:29:37;16.30;81.10
30399;DHT22;17195;50.838;7.214;2022-09-03T00:32:17;16.30;80.70
30399;DHT22;17195;50.838;7.214;2022-09-03T00:34:50;16.20;80.90
30399;DHT22;17195;50.838;7.214;2022-09-03T00:37:16;16.30;80.90
30399;DHT22;17195;50.838;7.214;2022-09-03T00:39:42;16.20;81.50
30399;DHT22;17195;50.838;7.214;2022-09-03T00:42:34;16.20;81.70
30399;DHT22;17195;50.838;7.214;2022-09-03T00:53:36;16.10;82.50
30399;DHT22;17195;50.838;7.214;2022-09-03T00:56:36;15.90;83.30
30399;DHT22;17195;50.838;7.214;2022-09-03T01:06:02;15.80;85.10
30399;DHT22;17195;50.838;7.214;2022-09-03T01:13:37;15.70;85.80
30399;DHT22;17195;50.838;7.214;2022-09-03T01:16:37;15.70;85.90
30399;DHT22;17195;50.838;7.214;2022-09-03T01:25:04;15.60;91.30
30399;DHT22;17195;50.838;7.214;2022-09-03T01:30:30;15.40;93.90
30399;DHT22;17195;50.838;7.214;2022-09-03T01:35:48;15.10;96.80
30399;DHT22;17195;50.838;7.214;2022-09-03T01:40:45;14.90;98.00
30399;DHT22;17195;50.838;7.214;2022-09-03T01:43:40;14.90;99.40
30399;DHT22;17195;50.838;7.214;2022-09-03T01:46:15;14.90;99.90
30399;DHT22;17195;50.838;7.214;2022-09-03T01:49:19;14.90;99.90
30399;DHT22;17195;50.838;7.214;2022-09-03T01:52:02;14.80;99.90
30399;DHT22;17195;50.838;7.214;2022-09-03T02:00:05;14.50;99.90
30399;DHT22;17195;50.838;7.214;2022-09-03T02:02:31;14.40;99.90
30399;DHT22;17195;50.838;7.214;2022-09-03T02:05:10;14.30;99.90
30399;DHT22;17195;50.838;7.214;2022-09-03T02:07:44;14.30;99.90
30399;DHT22;17195;50.838;7.214;2022-09-03T02:10:13;14.30;99.90
30399;DHT22;17195;50.838;7.214;2022-09-03T02:12:45;14.30;99.90
30399;DHT22;17195;50.838;7.214;2022-09-03T02:15:15;14.30;99.90
30399;DHT22;17195;50.838;7.214;2022-09-03T02:17:43;14.30;99.90
30399;DHT22;17195;50.838;7.214;2022-09-03T02:20:12;14.30;99.90
30399;DHT22;17195;50.838;7.214;2022-09-03T02:22:41;14.30;99.90
30399;DHT22;17195;50.838;7.214;2022-09-03T02:25:08;14.30;99.90
30399;DHT22;17195;50.838;7.214;2022-09-03T02:27:36;14.30;99.90
30399;DHT22;17195;50.838;7.214;2022-09-03T02:30:03;14.40;99.90
30399;DHT22;17195;50.838;7.214;2022-09-03T02:32:29;14.50;99.90
30399;DHT22;17195;50.838;7.214;2022-09-03T02:34:55;14.50;99.90
30399;DHT22;17195;50.838;7.214;2022-09-03T02:37:21;14.60;99.90
30399;DHT22;17195;50.838;7.214;2022-09-03T02:39:47;14.70;99.90
30399;DHT22;17195;50.838;7.214;2022-09-03T02:42:14;14.70;99.90
30399;DHT22;17195;50.838;7.214;2022-09-03T02:45:06;14.80;99.90
30399;DHT22;17195;50.838;7.214;2022-09-03T02:47:36;14.80;99.90
30399;DHT22;17195;50.838;7.214;2022-09-03T02:50:02;14.80;99.90
30399;DHT22;17195;50.838;7.214;2022-09-03T02:52:28;14.80;99.90
30399;DHT22;17195;50.838;7.214;2022-09-03T02:54:53;14.80;99.90
30399;DHT22;17195;50.838;7.214;2022-09-03T02:57:19;14.80;99.90
30399;DHT22;17195;50.838;7.214;2022-09-03T02:59:44;14.80;99.90
30399;DHT22;17195;50.838;7.214;2022-09-03T03:02:11;14.80;99.90
30399;DHT22;17195;50.838;7.214;2022-09-03T03:04:37;14.80;99.90
30399;DHT22;17195;50.838;7.214;2022-09-03T03:07:04;14.70;99.90
30399;DHT22;17195;50.838;7.214;2022-09-03T03:09:30;14.70;99.90
30399;DHT22;17195;50.838;7.214;2022-09-03T03:11:55;14.70;99.90
30399;DHT22;17195;50.838;7.214;2022-09-03T03:14:21;14.60;99.90
30399;DHT22;17195;50.838;7.214;2022-09-03T03:16:48;14.60;99.90
30399;DHT22;17195;50.838;7.214;2022-09-03T03:19:13;14.60;99.90
30399;DHT22;17195;50.838;7.214;2022-09-03T03:21:39;14.50;99.90
30399;DHT22;17195;50.838;7.214;2022-09-03T03:24:05;14.50;99.90
30399;DHT22;17195;50.838;7.214;2022-09-03T03:26:31;14.50;99.90
30399;DHT22;17195;50.838;7.214;2022-09-03T03:28:58;14.40;99.90
30399;DHT22;17195;50.838;7.214;2022-09-03T03:31:25;14.40;99.90
30399;DHT22;17195;50.838;7.214;2022-09-03T03:34:00;14.40;99.90
30399;DHT22;17195;50.838;7.214;2022-09-03T03:36:28;14.30;99.90
30399;DHT22;17195;50.838;7.214;2022-09-03T03:38:56;14.30;99.90
30399;DHT22;17195;50.838;7.214;2022-09-03T03:41:30;14.30;99.90
30399;DHT22;17195;50.838;7.214;2022-09-03T03:43:58;14.30;99.90
30399;DHT22;17195;50.838;7.214;2022-09-03T03:46:28;14.20;99.90
30399;DHT22;17195;50.838;7.214;2022-09-03T03:48:54;14.20;99.90
30399;DHT22;17195;50.838;7.214;2022-09-03T03:51:20;14.10;99.90
30399;DHT22;17195;50.838;7.214;2022-09-03T03:53:46;14.20;99.90
30399;DHT22;17195;50.838;7.214;2022-09-03T03:56:13;14.10;99.90
30399;DHT22;17195;50.838;7.214;2022-09-03T03:58:40;14.10;99.90
30399;DHT22;17195;50.838;7.214;2022-09-03T04:01:15;14.10;99.90
30399;DHT22;17195;50.838;7.214;2022-09-03T04:03:41;14.10;99.90
30399;DHT22;17195;50.838;7.214;2022-09-03T04:06:09;14.20;99.90
30399;DHT22;17195;50.838;7.214;2022-09-03T04:08:39;14.20;99.90
30399;DHT22;17195;50.838;7.214;2022-09-03T04:11:07;14.20;99.90
30399;DHT22;17195;50.838;7.214;2022-09-03T04:13:35;14.30;99.90
30399;DHT22;17195;50.838;7.214;2022-09-03T04:16:07;14.30;99.90
30399;DHT22;17195;50.838;7.214;2022-09-03T04:18:33;14.30;99.90
30399;DHT22;17195;50.838;7.214;2022-09-03T04:21:07;14.30;99.90
30399;DHT22;17195;50.838;7.214;2022-09-03T04:23:35;14.30;99.90
30399;DHT22;17195;50.838;7.214;2022-09-03T04:26:01;14.30;99.90
30399;DHT22;17195;50.838;7.214;2022-09-03T04:28:27;14.30;99.90
30399;DHT22;17195;50.838;7.214;2022-09-03T04:30:53;14.30;99.90
30399;DHT22;17195;50.838;7.214;2022-09-03T04:33:19;14.40;99.90
30399;DHT22;17195;50.838;7.214;2022-09-03T04:35:45;14.40;99.90
30399;DHT22;17195;50.838;7.214;2022-09-03T04:38:11;14.40;99.90
30399;DHT22;17195;50.838;7.214;2022-09-03T04:40:37;14.50;99.90
30399;DHT22;17195;50.838;7.214;2022-09-03T04:43:03;14.50;99.90
30399;DHT22;17195;50.838;7.214;2022-09-03T04:45:29;14.50;99.90
30399;DHT22;17195;50.838;7.214;2022-09-03T04:47:59;14.50;99.90
30399;DHT22;17195;50.838;7.214;2022-09-03T04:50:25;14.50;99.90
30399;DHT22;17195;50.838;7.214;2022-09-03T04:52:53;14.50;99.90
30399;DHT22;17195;50.838;7.214;2022-09-03T04:55:21;14.50;99.90
30399;DHT22;17195;50.838;7.214;2022-09-03T04:57:46;14.50;99.90
30399;DHT22;17195;50.838;7.214;2022-09-03T05:00:12;14.50;99.90
30399;DHT22;17195;50.838;7.214;2022-09-03T05:02:38;14.50;99.90
30399;DHT22;17195;50.838;7.214;2022-09-03T05:05:03;14.50;99.90
30399;DHT22;17195;50.838;7.214;2022-09-03T05:07:30;14.60;99.90
30399;DHT22;17195;50.838;7.214;2022-09-03T05:10:10;14.50;99.90
30399;DHT22;17195;50.838;7.214;2022-09-03T05:12:56;14.50;99.90
30399;DHT22;17195;50.838;7.214;2022-09-03T05:15:21;14.60;99.90
30399;DHT22;17195;50.838;7.214;2022-09-03T05:17:47;14.50;99.90
30399;DHT22;17195;50.838;7.214;2022-09-03T05:20:12;14.60;99.90
30399;DHT22;17195;50.838;7.214;2022-09-03T05:22:39;14.50;99.90
30399;DHT22;17195;50.838;7.214;2022-09-03T05:25:05;14.60;99.90
30399;DHT22;17195;50.838;7.214;2022-09-03T05:27:30;14.60;99.90
30399;DHT22;17195;50.838;7.214;2022-09-03T05:29:56;14.60;99.90
30399;DHT22;17195;50.838;7.214;2022-09-03T05:32:21;14.70;99.90
30399;DHT22;17195;50.838;7.214;2022-09-03T05:34:47;14.90;99.90
30399;DHT22;17195;50.838;7.214;2022-09-03T05:37:13;15.00;99.90
30399;DHT22;17195;50.838;7.214;2022-09-03T05:39:38;15.10;99.90
30399;DHT22;17195;50.838;7.214;2022-09-03T05:42:04;15.30;99.90
30399;DHT22;17195;50.838;7.214;2022-09-03T05:44:29;15.40;99.90
30399;DHT22;17195;50.838;7.214;2022-09-03T05:46:55;15.50;99.90
30399;DHT22;17195;50.838;7.214;2022-09-03T05:49:22;15.70;99.90
30399;DHT22;17195;50.838;7.214;2022-09-03T05:51:47;15.80;99.90
30399;DHT22;17195;50.838;7.214;2022-09-03T05:54:13;15.90;99.90
30399;DHT22;17195;50.838;7.214;2022-09-03T05:56:39;16.00;99.90
30399;DHT22;17195;50.838;7.214;2022-09-03T05:59:07;16.10;99.90
30399;DHT22;17195;50.838;7.214;2022-09-03T06:01:35;16.30;99.90
30399;DHT22;17195;50.838;7.214;2022-09-03T06:04:03;16.40;99.90
30399;DHT22;17195;50.838;7.214;2022-09-03T06:06:31;16.50;99.90
30399;DHT22;17195;50.838;7.214;2022-09-03T06:09:03;16.70;99.90
30399;DHT22;17195;50.838;7.214;2022-09-03T06:11:31;16.80;99.90
30399;DHT22;17195;50.838;7.214;2022-09-03T06:13:59;16.90;99.90
30399;DHT22;17195;50.838;7.214;2022-09-03T06:16:25;17.10;99.90
30399;DHT22;17195;50.838;7.214;2022-09-03T06:18:51;17.20;99.90
30399;DHT22;17195;50.838;7.214;2022-09-03T06:21:18;17.30;99.90
30399;DHT22;17195;50.838;7.214;2022-09-03T06:23:48;17.40;99.90
30399;DHT22;17195;50.838;7.214;2022-09-03T06:26:16;17.50;99.80
30399;DHT22;17195;50.838;7.214;2022-09-03T06:28:42;17.60;99.40
30399;DHT22;17195;50.838;7.214;2022-09-03T06:31:14;17.80;99.50
30399;DHT22;17195;50.838;7.214;2022-09-03T06:33:40;17.90;98.40
30399;DHT22;17195;50.838;7.214;2022-09-03T06:36:09;18.00;97.80
30399;DHT22;17195;50.838;7.214;2022-09-03T06:38:35;18.10;96.70
30399;DHT22;17195;50.838;7.214;2022-09-03T06:41:04;18.20;96.40
30399;DHT22;17195;50.838;7.214;2022-09-03T06:43:32;18.30;96.20
30399;DHT22;17195;50.838;7.214;2022-09-03T06:46:00;18.40;95.60
30399;DHT22;17195;50.838;7.214;2022-09-03T06:48:26;18.60;95.10
30399;DHT22;17195;50.838;7.214;2022-09-03T06:50:57;18.80;94.90
30399;DHT22;17195;50.838;7.214;2022-09-03T06:53:25;19.00;94.20
30399;DHT22;17195;50.838;7.214;2022-09-03T06:55:59;19.30;93.30
30399;DHT22;17195;50.838;7.214;2022-09-03T06:58:29;19.50;93.10
30399;DHT22;17195;50.838;7.214;2022-09-03T07:01:04;19.80;92.10
30399;DHT22;17195;50.838;7.214;2022-09-03T07:03:31;20.00;91.70
30399;DHT22;17195;50.838;7.214;2022-09-03T07:06:01;20.20;90.70
30399;DHT22;17195;50.838;7.214;2022-09-03T07:08:27;20.40;89.70
30399;DHT22;17195;50.838;7.214;2022-09-03T07:10:54;20.50;88.60
30399;DHT22;17195;50.838;7.214;2022-09-03T07:13:20;20.60;87.70
30399;DHT22;17195;50.838;7.214;2022-09-03T07:15:45;20.70;87.20
30399;DHT22;17195;50.838;7.214;2022-09-03T07:18:11;20.70;87.30
30399;DHT22;17195;50.838;7.214;2022-09-03T07:20:36;20.80;87.00
30399;DHT22;17195;50.838;7.214;2022-09-03T07:23:02;20.90;86.10
30399;DHT22;17195;50.838;7.214;2022-09-03T07:25:28;20.90;86.60
30399;DHT22;17195;50.838;7.214;2022-09-03T07:27:55;20.90;84.90
30399;DHT22;17195;50.838;7.214;2022-09-03T07:30:22;20.90;83.80
30399;DHT22;17195;50.838;7.214;2022-09-03T07:32:50;20.90;83.80
30399;DHT22;17195;50.838;7.214;2022-09-03T07:35:16;20.90;84.00
30399;DHT22;17195;50.838;7.214;2022-09-03T07:37:42;20.90;84.00
30399;DHT22;17195;50.838;7.214;2022-09-03T07:40:09;20.80;84.30
30399;DHT22;17195;50.838;7.214;2022-09-03T07:42:35;20.70;84.40
30399;DHT22;17195;50.838;7.214;2022-09-03T07:45:04;20.60;85.00
30399;DHT22;17195;50.838;7.214;2022-09-03T07:47:34;20.40;84.80
30399;DHT22;17195;50.838;7.214;2022-09-03T07:50:00;20.20;85.30
30399;DHT22;17195;50.838;7.214;2022-09-03T07:52:25;20.20;85.90
30399;DHT22;17195;50.838;7.214;2022-09-03T07:54:52;20.10;86.10
30399;DHT22;17195;50.838;7.214;2022-09-03T07:57:17;20.20;86.20
30399;DHT22;17195;50.838;7.214;2022-09-03T07:59:43;20.20;86.50
30399;DHT22;17195;50.838;7.214;2022-09-03T08:02:08;20.20;87.30
30399;DHT22;17195;50.838;7.214;2022-09-03T08:04:34;20.20;87.40
30399;DHT22;17195;50.838;7.214;2022-09-03T08:07:00;20.30;88.90
30399;DHT22;17195;50.838;7.214;2022-09-03T08:09:26;20.30;89.00
30399;DHT22;17195;50.838;7.214;2022-09-03T08:11:51;20.20;88.20
30399;DHT22;17195;50.838;7.214;2022-09-03T08:14:17;20.20;88.50
30399;DHT22;17195;50.838;7.214;2022-09-03T08:16:45;20.20;90.50
30399;DHT22;17195;50.838;7.214;2022-09-03T08:19:14;20.20;90.40
30399;DHT22;17195;50.838;7.214;2022-09-03T08:21:40;20.10;92.90
30399;DHT22;17195;50.838;7.214;2022-09-03T08:24:06;20.00;94.10
30399;DHT22;17195;50.838;7.214;2022-09-03T08:26:34;19.90;94.30
30399;DHT22;17195;50.838;7.214;2022-09-03T08:29:00;19.80;97.40
30399;DHT22;17195;50.838;7.214;2022-09-03T08:31:27;19.60;98.60
30399;DHT22;17195;50.838;7.214;2022-09-03T08:33:55;19.40;99.90
30399;DHT22;17195;50.838;7.214;2022-09-03T08:36:23;19.30;99.90
30399;DHT22;17195;50.838;7.214;2022-09-03T08:38:50;19.20;99.90
30399;DHT22;17195;50.838;7.214;2022-09-03T08:46:54;19.00;99.90
30399;DHT22;17195;50.838;7.214;2022-09-03T08:49:56;19.00;99.90
30399;DHT22;17195;50.838;7.214;2022-09-03T08:52:32;19.00;99.90
30399;DHT22;17195;50.838;7.214;2022-09-03T08:55:06;18.90;99.90
30399;DHT22;17195;50.838;7.214;2022-09-03T08:57:40;19.00;99.90
30399;DHT22;17195;50.838;7.214;2022-09-03T09:00:08;19.00;99.90
30399;DHT22;17195;50.838;7.214;2022-09-03T09:02:49;19.10;99.90
30399;DHT22;17195;50.838;7.214;2022-09-03T09:05:40;19.20;99.90
30399;DHT22;17195;50.838;7.214;2022-09-03T09:08:26;19.30;99.90
30399;DHT22;17195;50.838;7.214;2022-09-03T09:11:04;19.40;99.90
30399;DHT22;17195;50.838;7.214;2022-09-03T09:13:41;19.60;99.90
30399;DHT22;17195;50.838;7.214;2022-09-03T09:16:21;19.80;99.90
30399;DHT22;17195;50.838;7.214;2022-09-03T09:21:48;20.10;99.90
30399;DHT22;17195;50.838;7.214;2022-09-03T09:26:46;20.30;99.90
30399;DHT22;17195;50.838;7.214;2022-09-03T09:29:13;20.50;99.90
30399;DHT22;17195;50.838;7.214;2022-09-03T09:31:40;20.60;99.90
30399;DHT22;17195;50.838;7.214;2022-09-03T09:34:08;20.60;99.90
30399;DHT22;17195;50.838;7.214;2022-09-03T09:37:13;20.70;99.90
30399;DHT22;17195;50.838;7.214;2022-09-03T09:39:40;20.80;99.90
30399;DHT22;17195;50.838;7.214;2022-09-03T09:42:09;20.90;99.90
30399;DHT22;17195;50.838;7.214;2022-09-03T09:44:37;20.90;99.90
30399;DHT22;17195;50.838;7.214;2022-09-03T09:47:14;21.00;99.90
30399;DHT22;17195;50.838;7.214;2022-09-03T09:49:58;21.10;99.90
30399;DHT22;17195;50.838;7.214;2022-09-03T09:52:26;21.20;99.90
30399;DHT22;17195;50.838;7.214;2022-09-03T09:55:06;21.30;99.90
30399;DHT22;17195;50.838;7.214;2022-09-03T09:57:33;21.40;99.90
30399;DHT22;17195;50.838;7.214;2022-09-03T10:00:07;21.50;99.90
30399;DHT22;17195;50.838;7.214;2022-09-03T10:02:36;21.60;99.90
30399;DHT22;17195;50.838;7.214;2022-09-03T10:07:38;21.80;98.50
30399;DHT22;17195;50.838;7.214;2022-09-03T10:10:16;21.90;99.00
30399;DHT22;17195;50.838;7.214;2022-09-03T10:24:12;22.00;96.20
30399;DHT22;17195;50.838;7.214;2022-09-03T10:26:42;22.10;96.00
30399;DHT22;17195;50.838;7.214;2022-09-03T10:29:12;22.30;95.10
30399;DHT22;17195;50.838;7.214;2022-09-03T10:34:32;22.60;94.80
30399;DHT22;17195;50.838;7.214;2022-09-03T10:37:20;22.60;94.40
30399;DHT22;17195;50.838;7.214;2022-09-03T10:42:43;22.80;93.90
30399;DHT22;17195;50.838;7.214;2022-09-03T10:45:17;23.00;94.00
30399;DHT22;17195;50.838;7.214;2022-09-03T10:50:30;23.30;93.00
30399;DHT22;17195;50.838;7.214;2022-09-03T10:53:10;23.40;93.00
30399;DHT22;17195;50.838;7.214;2022-09-03T10:55:56;23.50;92.40
30399;DHT22;17195;50.838;7.214;2022-09-03T10:58:27;23.60;92.30
30399;DHT22;17195;50.838;7.214;2022-09-03T11:01:03;23.60;91.90
30399;DHT22;17195;50.838;7.214;2022-09-03T11:03:47;23.70;92.00
30399;DHT22;17195;50.838;7.214;2022-09-03T11:06:27;23.80;92.00
30399;DHT22;17195;50.838;7.214;2022-09-03T11:09:12;23.90;91.70
30399;DHT22;17195;50.838;7.214;2022-09-03T11:11:43;23.90;91.50
30399;DHT22;17195;50.838;7.214;2022-09-03T11:14:13;24.10;91.30
30399;DHT22;17195;50.838;7.214;2022-09-03T11:16:54;24.10;90.50
30399;DHT22;17195;50.838;7.214;2022-09-03T11:19:36;24.30;90.30
30399;DHT22;17195;50.838;7.214;2022-09-03T11:22:06;24.40;89.60
30399;DHT22;17195;50.838;7.214;2022-09-03T11:24:32;24.60;90.50
30399;DHT22;17195;50.838;7.214;2022-09-03T11:30:08;24.90;88.50
30399;DHT22;17195;50.838;7.214;2022-09-03T11:32:48;25.00;87.40
30399;DHT22;17195;50.838;7.214;2022-09-03T11:38:03;24.90;88.10
30399;DHT22;17195;50.838;7.214;2022-09-03T11:40:37;24.90;88.80
30399;DHT22;17195;50.838;7.214;2022-09-03T11:43:13;24.90;87.80
30399;DHT22;17195;50.838;7.214;2022-09-03T11:45:48;25.00;88.60
30399;DHT22;17195;50.838;7.214;2022-09-03T11:51:19;25.00;88.00
30399;DHT22;17195;50.838;7.214;2022-09-03T11:53:55;25.20;87.60
30399;DHT22;17195;50.838;7.214;2022-09-03T11:56:21;25.50;85.90
30399;DHT22;17195;50.838;7.214;2022-09-03T11:59:05;25.60;86.80
30399;DHT22;17195;50.838;7.214;2022-09-03T12:01:56;25.80;87.40
30399;DHT22;17195;50.838;7.214;2022-09-03T12:04:39;25.80;84.80
30399;DHT22;17195;50.838;7.214;2022-09-03T12:10:25;25.70;84.00
30399;DHT22;17195;50.838;7.214;2022-09-03T12:18:34;25.80;86.30
30399;DHT22;17195;50.838;7.214;2022-09-03T12:21:02;25.60;87.30
30399;DHT22;17195;50.838;7.214;2022-09-03T12:23:29;25.70;87.50
30399;DHT22;17195;50.838;7.214;2022-09-03T12:26:04;25.90;86.80
30399;DHT22;17195;50.838;7.214;2022-09-03T12:28:35;26.10;86.40
30399;DHT22;17195;50.838;7.214;2022-09-03T12:33:32;26.20;84.70
30399;DHT22;17195;50.838;7.214;2022-09-03T12:35:59;26.30;84.60
30399;DHT22;17195;50.838;7.214;2022-09-03T12:38:28;26.40;84.20
30399;DHT22;17195;50.838;7.214;2022-09-03T12:40:56;26.50;84.40
30399;DHT22;17195;50.838;7.214;2022-09-03T12:43:26;26.50;85.00
30399;DHT22;17195;50.838;7.214;2022-09-03T12:45:52;26.70;85.40
30399;DHT22;17195;50.838;7.214;2022-09-03T12:48:19;26.90;84.30
30399;DHT22;17195;50.838;7.214;2022-09-03T12:50:47;27.10;83.30
30399;DHT22;17195;50.838;7.214;2022-09-03T12:53:24;27.20;82.60
30399;DHT22;17195;50.838;7.214;2022-09-03T12:55:54;27.20;82.70
30399;DHT22;17195;50.838;7.214;2022-09-03T13:01:23;27.40;81.80
30399;DHT22;17195;50.838;7.214;2022-09-03T13:09:14;27.60;81.00
30399;DHT22;17195;50.838;7.214;2022-09-03T13:11:40;27.90;80.60
30399;DHT22;17195;50.838;7.214;2022-09-03T13:14:10;27.90;79.80
30399;DHT22;17195;50.838;7.214;2022-09-03T13:19:38;28.00;80.10
30399;DHT22;17195;50.838;7.214;2022-09-03T13:30:54;28.50;77.80
30399;DHT22;17195;50.838;7.214;2022-09-03T13:33:52;28.60;77.30
30399;DHT22;17195;50.838;7.214;2022-09-03T13:36:24;28.70;77.30
30399;DHT22;17195;50.838;7.214;2022-09-03T13:38:52;28.90;76.50
30399;DHT22;17195;50.838;7.214;2022-09-03T13:53:08;29.70;73.50
30399;DHT22;17195;50.838;7.214;2022-09-03T13:55:46;29.70;73.30
30399;DHT22;17195;50.838;7.214;2022-09-03T13:58:22;29.90;73.40
30399;DHT22;17195;50.838;7.214;2022-09-03T14:03:47;30.00;71.50
30399;DHT22;17195;50.838;7.214;2022-09-03T14:12:13;30.20;71.00
30399;DHT22;17195;50.838;7.214;2022-09-03T14:20:05;29.90;70.90
30399;DHT22;17195;50.838;7.214;2022-09-03T14:22:52;29.80;71.40
30399;DHT22;17195;50.838;7.214;2022-09-03T14:25:24;29.80;71.00
30399;DHT22;17195;50.838;7.214;2022-09-03T14:27:51;29.70;71.50
30399;DHT22;17195;50.838;7.214;2022-09-03T14:33:09;29.90;71.40
30399;DHT22;17195;50.838;7.214;2022-09-03T14:38:29;30.50;69.90
30399;DHT22;17195;50.838;7.214;2022-09-03T14:42:22;30.80;68.90
30399;DHT22;17195;50.838;7.214;2022-09-03T14:52:38;31.60;66.90
30399;DHT22;17195;50.838;7.214;2022-09-03T14:58:19;32.00;65.40
30399;DHT22;17195;50.838;7.214;2022-09-03T15:01:10;32.00;64.20
30399;DHT22;17195;50.838;7.214;2022-09-03T15:06:52;32.10;64.60
30399;DHT22;17195;50.838;7.214;2022-09-03T15:09:27;32.20;62.40
30399;DHT22;17195;50.838;7.214;2022-09-03T15:11:58;32.10;62.30
30399;DHT22;17195;50.838;7.214;2022-09-03T15:14:34;31.90;62.70
30399;DHT22;17195;50.838;7.214;2022-09-03T15:17:25;31.60;63.10
30399;DHT22;17195;50.838;7.214;2022-09-03T15:20:16;31.10;63.70
30399;DHT22;17195;50.838;7.214;2022-09-03T15:28:52;31.00;64.10
30399;DHT22;17195;50.838;7.214;2022-09-03T15:36:54;30.00;66.80
30399;DHT22;17195;50.838;7.214;2022-09-03T15:39:27;29.80;66.70
30399;DHT22;17195;50.838;7.214;2022-09-03T15:42:03;29.60;67.40
30399;DHT22;17195;50.838;7.214;2022-09-03T15:44:36;29.30;68.00
30399;DHT22;17195;50.838;7.214;2022-09-03T15:47:08;29.30;68.60
30399;DHT22;17195;50.838;7.214;2022-09-03T15:49:58;29.30;68.60
30399;DHT22;17195;50.838;7.214;2022-09-03T15:55:33;29.60;69.20
30399;DHT22;17195;50.838;7.214;2022-09-03T16:03:12;29.70;67.80
30399;DHT22;17195;50.838;7.214;2022-09-03T16:06:06;29.20;69.90
30399;DHT22;17195;50.838;7.214;2022-09-03T16:08:52;28.70;73.30
30399;DHT22;17195;50.838;7.214;2022-09-03T16:11:36;28.30;81.50
30399;DHT22;17195;50.838;7.214;2022-09-03T16:14:14;27.70;81.80
30399;DHT22;17195;50.838;7.214;2022-09-03T16:22:16;26.20;89.80
30399;DHT22;17195;50.838;7.214;2022-09-03T16:24:47;25.60;91.60
30399;DHT22;17195;50.838;7.214;2022-09-03T16:27:28;25.10;96.40
30399;DHT22;17195;50.838;7.214;2022-09-03T16:32:44;24.30;99.90
30399;DHT22;17195;50.838;7.214;2022-09-03T16:35:41;23.90;99.90
30399;DHT22;17195;50.838;7.214;2022-09-03T16:38:54;23.60;99.90
30399;DHT22;17195;50.838;7.214;2022-09-03T16:41:35;23.30;99.90
30399;DHT22;17195;50.838;7.214;2022-09-03T16:44:32;23.10;99.90
30399;DHT22;17195;50.838;7.214;2022-09-03T16:56:01;22.00;99.90
30399;DHT22;17195;50.838;7.214;2022-09-03T17:10:08;20.90;99.90
30399;DHT22;17195;50.838;7.214;2022-09-03T17:12:56;20.70;99.90
30399;DHT22;17195;50.838;7.214;2022-09-03T17:15:48;20.50;99.90
30399;DHT22;17195;50.838;7.214;2022-09-03T17:18:20;20.40;99.90
30399;DHT22;17195;50.838;7.214;2022-09-03T17:21:08;20.30;99.90
30399;DHT22;17195;50.838;7.214;2022-09-03T17:23:58;20.30;99.90
30399;DHT22;17195;50.838;7.214;2022-09-03T17:37:30;20.10;99.90
30399;DHT22;17195;50.838;7.214;2022-09-03T17:43:31;20.10;99.90
30399;DHT22;17195;50.838;7.214;2022-09-03T17:46:48;20.10;99.90
30399;DHT22;17195;50.838;7.214;2022-09-03T17:48:53;20.10;99.90
30399;DHT22;17195;50.838;7.214;2022-09-03T17:54:03;20.10;99.90
30399;DHT22;17195;50.838;7.214;2022-09-03T17:56:41;20.10;99.90
30399;DHT22;17195;50.838;7.214;2022-09-03T17:59:11;20.10;99.90
30399;DHT22;17195;50.838;7.214;2022-09-03T18:01:48;20.10;99.90
30399;DHT22;17195;50.838;7.214;2022-09-03T18:04:45;20.00;99.90
30399;DHT22;17195;50.838;7.214;2022-09-03T18:10:17;19.80;99.90
30399;DHT22;17195;50.838;7.214;2022-09-03T18:13:10;19.60;99.90
30399;DHT22;17195;50.838;7.214;2022-09-03T18:15:58;19.60;99.90
30399;DHT22;17195;50.838;7.214;2022-09-03T18:18:29;19.50;99.90
30399;DHT22;17195;50.838;7.214;2022-09-03T18:21:07;19.30;99.90
30399;DHT22;17195;50.838;7.214;2022-09-03T18:24:10;19.20;99.90
30399;DHT22;17195;50.838;7.214;2022-09-03T18:27:08;19.10;99.90
30399;DHT22;17195;50.838;7.214;2022-09-03T18:30:05;18.90;99.90
30399;DHT22;17195;50.838;7.214;2022-09-03T18:32:50;18.80;99.90
30399;DHT22;17195;50.838;7.214;2022-09-03T18:35:35;18.80;99.90
30399;DHT22;17195;50.838;7.214;2022-09-03T18:38:25;18.80;99.90
30399;DHT22;17195;50.838;7.214;2022-09-03T18:47:28;18.40;99.90
30399;DHT22;17195;50.838;7.214;2022-09-03T18:50:28;18.30;99.90
30399;DHT22;17195;50.838;7.214;2022-09-03T18:56:45;18.00;99.90
30399;DHT22;17195;50.838;7.214;2022-09-03T19:09:28;17.80;99.90
30399;DHT22;17195;50.838;7.214;2022-09-03T19:15:36;17.60;99.90
30399;DHT22;17195;50.838;7.214;2022-09-03T19:19:03;17.50;99.90
30399;DHT22;17195;50.838;7.214;2022-09-03T19:21:48;17.40;99.90
30399;DHT22;17195;50.838;7.214;2022-09-03T19:24:33;17.40;99.90
30399;DHT22;17195;50.838;7.214;2022-09-03T19:27:27;17.40;99.90
30399;DHT22;17195;50.838;7.214;2022-09-03T19:30:19;17.40;99.90
30399;DHT22;17195;50.838;7.214;2022-09-03T19:39:02;17.20;99.90
30399;DHT22;17195;50.838;7.214;2022-09-03T19:51:11;17.00;99.90
30399;DHT22;17195;50.838;7.214;2022-09-03T19:53:59;17.00;99.90
30399;DHT22;17195;50.838;7.214;2022-09-03T19:56:44;16.90;99.90
30399;DHT22;17195;50.838;7.214;2022-09-03T19:59:32;16.90;99.90
30399;DHT22;17195;50.838;7.214;2022-09-03T20:02:17;16.80;99.90
30399;DHT22;17195;50.838;7.214;2022-09-03T20:05:02;16.80;99.90
30399;DHT22;17195;50.838;7.214;2022-09-03T20:07:53;16.70;99.90
30399;DHT22;17195;50.838;7.214;2022-09-03T20:10:39;16.70;99.90
30399;DHT22;17195;50.838;7.214;2022-09-03T20:13:14;16.60;99.90
30399;DHT22;17195;50.838;7.214;2022-09-03T20:16:10;16.60;99.90
30399;DHT22;17195;50.838;7.214;2022-09-03T20:21:24;16.50;99.90
30399;DHT22;17195;50.838;7.214;2022-09-03T20:35:39;16.30;99.90
30399;DHT22;17195;50.838;7.214;2022-09-03T20:44:10;16.20;99.90
30399;DHT22;17195;50.838;7.214;2022-09-03T20:47:01;16.20;99.90
30399;DHT22;17195;50.838;7.214;2022-09-03T20:54:55;16.10;99.90
30399;DHT22;17195;50.838;7.214;2022-09-03T21:00:16;16.10;99.90
30399;DHT22;17195;50.838;7.214;2022-09-03T21:03:14;16.10;99.90
30399;DHT22;17195;50.838;7.214;2022-09-03T21:06:10;16.00;99.90
30399;DHT22;17195;50.838;7.214;2022-09-03T21:11:12;16.00;99.90
30399;DHT22;17195;50.838;7.214;2022-09-03T21:24:34;15.90;99.90